sensor_id;sensor_type;location;lat;lon;timestamp;temperature;humidity
7002;DHT22;3541;53.230;10.518;2023-04-24T00:01:23;14.10;99.90
7002;DHT22;3541;53.230;10.518;2023-04-24T00:03:50;14.10;99.90
7002;DHT22;3541;53.230;10.518;2023-04-24T00:06:16;14.00;99.90
7002;DHT22;3541;53.230;10.518;2023-04-24T00:08:44;14.00;99.90
7002;DHT22;3541;53.230;10.518;2023-04-24T00:11:11;14.00;99.90
7002;DHT22;3541;53.230;10.518;2023-04-24T00:13:38;14.00;99.90
7002;DHT22;3541;53.230;10.518;2023-04-24T00:16:05;14.00;99.90
7002;DHT22;3541;53.230;10.518;2023-04-24T00:18:31;14.00;99.90
7002;DHT22;3541;53.230;10.518;2023-04-24T00:20:58;14.00;99.90
7002;DHT22;3541;53.230;10.518;2023-04-24T00:23:25;13.90;99.90
7002;DHT22;3541;53.230;10.518;2023-04-24T00:25:53;13.90;99.90
7002;DHT22;3541;53.230;10.518;2023-04-24T00:28:19;13.90;99.90
7002;DHT22;3541;53.230;10.518;2023-04-24T00:30:46;13.90;99.90
7002;DHT22;3541;53.230;10.518;2023-04-24T00:33:12;13.90;99.90
7002;DHT22;3541;53.230;10.518;2023-04-24T00:35:39;13.90;99.90
7002;DHT22;3541;53.230;10.518;2023-04-24T00:38:06;13.90;99.90
7002;DHT22;3541;53.230;10.518;2023-04-24T00:40:32;13.80;99.90
7002;DHT22;3541;53.230;10.518;2023-04-24T00:43:00;13.80;99.90
7002;DHT22;3541;53.230;10.518;2023-04-24T00:45:27;13.80;99.90
7002;DHT22;3541;53.230;10.518;2023-04-24T00:47:54;13.80;99.90
7002;DHT22;3541;53.230;10.518;2023-04-24T00:50:21;13.80;99.90
7002;DHT22;3541;53.230;10.518;2023-04-24T00:52:48;13.70;99.90
7002;DHT22;3541;53.230;10.518;2023-04-24T00:55:15;13.60;99.90
7002;DHT22;3541;53.230;10.518;2023-04-24T00:57:41;13.70;99.90
7002;DHT22;3541;53.230;10.518;2023-04-24T01:00:10;13.70;99.90
7002;DHT22;3541;53.230;10.518;2023-04-24T01:02:39;13.70;99.90
7002;DHT22;3541;53.230;10.518;2023-04-24T01:05:09;13.70;99.90
7002;DHT22;3541;53.230;10.518;2023-04-24T01:07:38;13.70;99.90
7002;DHT22;3541;53.230;10.518;2023-04-24T01:10:05;13.70;99.90
7002;DHT22;3541;53.230;10.518;2023-04-24T01:12:33;13.60;99.90
7002;DHT22;3541;53.230;10.518;2023-04-24T01:14:59;13.60;99.90
7002;DHT22;3541;53.230;10.518;2023-04-24T01:17:27;13.60;99.90
7002;DHT22;3541;53.230;10.518;2023-04-24T01:19:54;13.60;99.90
7002;DHT22;3541;53.230;10.518;2023-04-24T01:22:23;13.60;99.90
7002;DHT22;3541;53.230;10.518;2023-04-24T01:24:50;13.60;99.90
7002;DHT22;3541;53.230;10.518;2023-04-24T01:27:17;13.50;99.90
7002;DHT22;3541;53.230;10.518;2023-04-24T01:29:44;13.50;99.90
7002;DHT22;3541;53.230;10.518;2023-04-24T01:32:11;13.50;99.90
7002;DHT22;3541;53.230;10.518;2023-04-24T01:34:38;13.50;99.90
7002;DHT22;3541;53.230;10.518;2023-04-24T01:37:04;13.50;99.90
7002;DHT22;3541;53.230;10.518;2023-04-24T01:39:32;13.40;99.90
7002;DHT22;3541;53.230;10.518;2023-04-24T01:42:00;13.40;99.90
7002;DHT22;3541;53.230;10.518;2023-04-24T01:44:27;13.40;99.90
7002;DHT22;3541;53.230;10.518;2023-04-24T01:46:55;13.40;99.90
7002;DHT22;3541;53.230;10.518;2023-04-24T01:49:21;13.30;99.90
7002;DHT22;3541;53.230;10.518;2023-04-24T01:51:48;13.30;99.90
7002;DHT22;3541;53.230;10.518;2023-04-24T01:54:15;13.30;99.90
7002;DHT22;3541;53.230;10.518;2023-04-24T01:56:43;13.30;99.90
7002;DHT22;3541;53.230;10.518;2023-04-24T01:59:10;13.30;99.90
7002;DHT22;3541;53.230;10.518;2023-04-24T02:01:37;13.20;99.90
7002;DHT22;3541;53.230;10.518;2023-04-24T02:04:04;13.20;99.90
7002;DHT22;3541;53.230;10.518;2023-04-24T02:06:31;13.20;99.90
7002;DHT22;3541;53.230;10.518;2023-04-24T02:08:58;13.10;99.90
7002;DHT22;3541;53.230;10.518;2023-04-24T02:11:25;13.20;99.90
7002;DHT22;3541;53.230;10.518;2023-04-24T02:13:53;13.10;99.90
7002;DHT22;3541;53.230;10.518;2023-04-24T02:16:20;13.20;99.90
7002;DHT22;3541;53.230;10.518;2023-04-24T02:18:46;13.20;99.90
7002;DHT22;3541;53.230;10.518;2023-04-24T02:21:13;13.10;99.90
7002;DHT22;3541;53.230;10.518;2023-04-24T02:23:40;13.10;99.90
7002;DHT22;3541;53.230;10.518;2023-04-24T02:26:06;13.10;99.90
7002;DHT22;3541;53.230;10.518;2023-04-24T02:28:33;13.10;99.90
7002;DHT22;3541;53.230;10.518;2023-04-24T02:31:01;13.10;99.90
7002;DHT22;3541;53.230;10.518;2023-04-24T02:33:27;13.00;99.90
7002;DHT22;3541;53.230;10.518;2023-04-24T02:35:54;13.00;99.90
7002;DHT22;3541;53.230;10.518;2023-04-24T02:38:20;12.90;99.90
7002;DHT22;3541;53.230;10.518;2023-04-24T02:40:47;12.90;99.90
7002;DHT22;3541;53.230;10.518;2023-04-24T02:43:13;12.90;99.90
7002;DHT22;3541;53.230;10.518;2023-04-24T02:45:40;12.80;99.90
7002;DHT22;3541;53.230;10.518;2023-04-24T02:48:08;12.70;99.90
7002;DHT22;3541;53.230;10.518;2023-04-24T02:50:34;12.70;99.90
7002;DHT22;3541;53.230;10.518;2023-04-24T02:53:01;12.70;99.90
7002;DHT22;3541;53.230;10.518;2023-04-24T02:55:27;12.70;99.90
7002;DHT22;3541;53.230;10.518;2023-04-24T02:57:54;12.70;99.90
7002;DHT22;3541;53.230;10.518;2023-04-24T03:00:21;12.60;99.90
7002;DHT22;3541;53.230;10.518;2023-04-24T03:02:48;12.60;99.90
7002;DHT22;3541;53.230;10.518;2023-04-24T03:05:17;12.50;99.90
7002;DHT22;3541;53.230;10.518;2023-04-24T03:07:43;12.50;99.90
7002;DHT22;3541;53.230;10.518;2023-04-24T03:10:10;12.40;99.90
7002;DHT22;3541;53.230;10.518;2023-04-24T03:12:37;12.40;99.90
7002;DHT22;3541;53.230;10.518;2023-04-24T03:15:04;12.50;99.90
7002;DHT22;3541;53.230;10.518;2023-04-24T03:17:31;12.50;99.90
7002;DHT22;3541;53.230;10.518;2023-04-24T03:19:58;12.40;99.90
7002;DHT22;3541;53.230;10.518;2023-04-24T03:22:25;12.20;99.90
7002;DHT22;3541;53.230;10.518;2023-04-24T03:24:52;12.20;99.90
7002;DHT22;3541;53.230;10.518;2023-04-24T03:27:20;12.20;99.90
7002;DHT22;3541;53.230;10.518;2023-04-24T03:29:46;12.20;99.90
7002;DHT22;3541;53.230;10.518;2023-04-24T03:32:13;12.10;99.90
7002;DHT22;3541;53.230;10.518;2023-04-24T03:34:39;12.20;99.90
7002;DHT22;3541;53.230;10.518;2023-04-24T03:37:06;12.20;99.90
7002;DHT22;3541;53.230;10.518;2023-04-24T03:39:34;12.20;99.90
7002;DHT22;3541;53.230;10.518;2023-04-24T03:42:01;12.20;99.90
7002;DHT22;3541;53.230;10.518;2023-04-24T03:44:27;12.20;99.90
7002;DHT22;3541;53.230;10.518;2023-04-24T03:46:54;12.20;99.90
7002;DHT22;3541;53.230;10.518;2023-04-24T03:49:20;12.20;99.90
7002;DHT22;3541;53.230;10.518;2023-04-24T03:51:47;12.10;99.90
7002;DHT22;3541;53.230;10.518;2023-04-24T03:54:14;12.10;99.90
7002;DHT22;3541;53.230;10.518;2023-04-24T03:56:41;12.00;99.90
7002;DHT22;3541;53.230;10.518;2023-04-24T03:59:08;11.90;99.90
7002;DHT22;3541;53.230;10.518;2023-04-24T04:01:35;11.90;99.90
7002;DHT22;3541;53.230;10.518;2023-04-24T04:04:02;11.90;99.90
7002;DHT22;3541;53.230;10.518;2023-04-24T04:06:29;12.00;99.90
7002;DHT22;3541;53.230;10.518;2023-04-24T04:08:57;12.00;99.90
7002;DHT22;3541;53.230;10.518;2023-04-24T04:11:23;12.00;99.90
7002;DHT22;3541;53.230;10.518;2023-04-24T04:13:51;12.00;99.90
7002;DHT22;3541;53.230;10.518;2023-04-24T04:16:18;12.00;99.90
7002;DHT22;3541;53.230;10.518;2023-04-24T04:18:45;11.90;99.90
7002;DHT22;3541;53.230;10.518;2023-04-24T04:21:11;11.90;99.90
7002;DHT22;3541;53.230;10.518;2023-04-24T04:23:38;11.80;99.90
7002;DHT22;3541;53.230;10.518;2023-04-24T04:26:05;11.80;99.90
7002;DHT22;3541;53.230;10.518;2023-04-24T04:28:33;11.80;99.90
7002;DHT22;3541;53.230;10.518;2023-04-24T04:31:01;11.90;99.90
7002;DHT22;3541;53.230;10.518;2023-04-24T04:33:28;11.90;99.90
7002;DHT22;3541;53.230;10.518;2023-04-24T04:35:54;11.90;99.90
7002;DHT22;3541;53.230;10.518;2023-04-24T04:38:22;11.90;99.90
7002;DHT22;3541;53.230;10.518;2023-04-24T04:40:48;11.80;99.90
7002;DHT22;3541;53.230;10.518;2023-04-24T04:43:15;11.80;99.90
7002;DHT22;3541;53.230;10.518;2023-04-24T04:45:42;11.70;99.90
7002;DHT22;3541;53.230;10.518;2023-04-24T04:48:11;11.70;99.90
7002;DHT22;3541;53.230;10.518;2023-04-24T04:50:39;11.70;99.90
7002;DHT22;3541;53.230;10.518;2023-04-24T04:53:05;11.70;99.90
7002;DHT22;3541;53.230;10.518;2023-04-24T04:55:32;11.70;99.90
7002;DHT22;3541;53.230;10.518;2023-04-24T04:57:58;11.70;99.90
7002;DHT22;3541;53.230;10.518;2023-04-24T05:00:25;11.70;99.90
7002;DHT22;3541;53.230;10.518;2023-04-24T05:02:54;11.70;99.90
7002;DHT22;3541;53.230;10.518;2023-04-24T05:05:22;11.80;99.90
7002;DHT22;3541;53.230;10.518;2023-04-24T05:07:48;11.70;99.90
7002;DHT22;3541;53.230;10.518;2023-04-24T05:10:15;11.70;99.90
7002;DHT22;3541;53.230;10.518;2023-04-24T05:12:41;11.70;99.90
7002;DHT22;3541;53.230;10.518;2023-04-24T05:15:08;11.60;99.90
7002;DHT22;3541;53.230;10.518;2023-04-24T05:17:35;11.70;99.90
7002;DHT22;3541;53.230;10.518;2023-04-24T05:20:02;11.70;99.90
7002;DHT22;3541;53.230;10.518;2023-04-24T05:22:32;11.60;99.90
7002;DHT22;3541;53.230;10.518;2023-04-24T05:24:58;11.60;99.90
7002;DHT22;3541;53.230;10.518;2023-04-24T05:27:25;11.60;99.90
7002;DHT22;3541;53.230;10.518;2023-04-24T05:29:51;11.60;99.90
7002;DHT22;3541;53.230;10.518;2023-04-24T05:32:18;11.60;99.90
7002;DHT22;3541;53.230;10.518;2023-04-24T05:34:44;11.70;99.90
7002;DHT22;3541;53.230;10.518;2023-04-24T05:37:11;11.70;99.90
7002;DHT22;3541;53.230;10.518;2023-04-24T05:39:39;11.70;99.90
7002;DHT22;3541;53.230;10.518;2023-04-24T05:42:06;11.60;99.90
7002;DHT22;3541;53.230;10.518;2023-04-24T05:44:33;11.70;99.90
7002;DHT22;3541;53.230;10.518;2023-04-24T05:47:00;11.70;99.90
7002;DHT22;3541;53.230;10.518;2023-04-24T05:49:27;11.60;99.90
7002;DHT22;3541;53.230;10.518;2023-04-24T05:51:53;11.60;99.90
7002;DHT22;3541;53.230;10.518;2023-04-24T05:54:20;11.70;99.90
7002;DHT22;3541;53.230;10.518;2023-04-24T05:56:49;11.70;99.90
7002;DHT22;3541;53.230;10.518;2023-04-24T05:59:15;11.70;99.90
7002;DHT22;3541;53.230;10.518;2023-04-24T06:01:42;11.70;99.90
7002;DHT22;3541;53.230;10.518;2023-04-24T06:04:10;11.70;99.90
7002;DHT22;3541;53.230;10.518;2023-04-24T06:06:36;11.70;99.90
7002;DHT22;3541;53.230;10.518;2023-04-24T06:09:03;11.70;99.90
7002;DHT22;3541;53.230;10.518;2023-04-24T06:11:30;11.80;99.90
7002;DHT22;3541;53.230;10.518;2023-04-24T06:13:58;11.80;99.90
7002;DHT22;3541;53.230;10.518;2023-04-24T06:16:25;11.80;99.90
7002;DHT22;3541;53.230;10.518;2023-04-24T06:18:51;11.80;99.90
7002;DHT22;3541;53.230;10.518;2023-04-24T06:21:18;11.80;99.90
7002;DHT22;3541;53.230;10.518;2023-04-24T06:23:45;11.90;99.90
7002;DHT22;3541;53.230;10.518;2023-04-24T06:26:12;11.90;99.90
7002;DHT22;3541;53.230;10.518;2023-04-24T06:28:39;12.00;99.90
7002;DHT22;3541;53.230;10.518;2023-04-24T06:31:07;12.00;99.90
7002;DHT22;3541;53.230;10.518;2023-04-24T06:33:33;12.00;99.90
7002;DHT22;3541;53.230;10.518;2023-04-24T06:36:00;12.00;99.90
7002;DHT22;3541;53.230;10.518;2023-04-24T06:38:26;12.00;99.90
7002;DHT22;3541;53.230;10.518;2023-04-24T06:40:54;12.00;99.90
7002;DHT22;3541;53.230;10.518;2023-04-24T06:43:21;12.10;99.90
7002;DHT22;3541;53.230;10.518;2023-04-24T06:45:48;12.10;99.90
7002;DHT22;3541;53.230;10.518;2023-04-24T06:48:15;12.10;99.90
7002;DHT22;3541;53.230;10.518;2023-04-24T06:50:42;12.20;99.90
7002;DHT22;3541;53.230;10.518;2023-04-24T06:53:09;12.20;99.90
7002;DHT22;3541;53.230;10.518;2023-04-24T06:55:38;12.20;99.90
7002;DHT22;3541;53.230;10.518;2023-04-24T06:58:04;12.20;99.90
7002;DHT22;3541;53.230;10.518;2023-04-24T07:00:31;12.30;99.90
7002;DHT22;3541;53.230;10.518;2023-04-24T07:02:58;12.30;99.90
7002;DHT22;3541;53.230;10.518;2023-04-24T07:05:26;12.30;99.90
7002;DHT22;3541;53.230;10.518;2023-04-24T07:07:53;12.30;99.90
7002;DHT22;3541;53.230;10.518;2023-04-24T07:10:20;12.30;99.90
7002;DHT22;3541;53.230;10.518;2023-04-24T07:12:46;12.40;99.90
7002;DHT22;3541;53.230;10.518;2023-04-24T07:15:13;12.40;99.90
7002;DHT22;3541;53.230;10.518;2023-04-24T07:17:40;12.40;99.90
7002;DHT22;3541;53.230;10.518;2023-04-24T07:20:09;12.40;99.90
7002;DHT22;3541;53.230;10.518;2023-04-24T07:22:38;12.50;99.90
7002;DHT22;3541;53.230;10.518;2023-04-24T07:25:05;12.60;99.90
7002;DHT22;3541;53.230;10.518;2023-04-24T07:27:33;12.60;99.90
7002;DHT22;3541;53.230;10.518;2023-04-24T07:30:01;12.70;99.90
7002;DHT22;3541;53.230;10.518;2023-04-24T07:32:27;12.70;99.90
7002;DHT22;3541;53.230;10.518;2023-04-24T07:34:54;12.90;99.90
7002;DHT22;3541;53.230;10.518;2023-04-24T07:37:21;12.90;99.90
7002;DHT22;3541;53.230;10.518;2023-04-24T07:39:49;13.00;99.90
7002;DHT22;3541;53.230;10.518;2023-04-24T07:42:16;12.90;99.90
7002;DHT22;3541;53.230;10.518;2023-04-24T07:44:42;12.90;99.90
7002;DHT22;3541;53.230;10.518;2023-04-24T07:47:09;12.90;99.90
7002;DHT22;3541;53.230;10.518;2023-04-24T07:49:36;12.90;99.90
7002;DHT22;3541;53.230;10.518;2023-04-24T07:52:02;13.00;99.90
7002;DHT22;3541;53.230;10.518;2023-04-24T07:54:29;13.00;99.90
7002;DHT22;3541;53.230;10.518;2023-04-24T07:56:57;13.00;99.90
7002;DHT22;3541;53.230;10.518;2023-04-24T07:59:23;13.10;99.90
7002;DHT22;3541;53.230;10.518;2023-04-24T08:01:50;13.10;99.90
7002;DHT22;3541;53.230;10.518;2023-04-24T08:04:16;13.10;99.90
7002;DHT22;3541;53.230;10.518;2023-04-24T08:06:44;13.10;99.90
7002;DHT22;3541;53.230;10.518;2023-04-24T08:09:10;13.10;99.90
7002;DHT22;3541;53.230;10.518;2023-04-24T08:11:37;13.20;99.90
7002;DHT22;3541;53.230;10.518;2023-04-24T08:14:05;13.20;99.90
7002;DHT22;3541;53.230;10.518;2023-04-24T08:16:32;13.20;99.90
7002;DHT22;3541;53.230;10.518;2023-04-24T08:18:59;13.20;99.90
7002;DHT22;3541;53.230;10.518;2023-04-24T08:21:25;13.30;99.90
7002;DHT22;3541;53.230;10.518;2023-04-24T08:23:52;13.30;99.90
7002;DHT22;3541;53.230;10.518;2023-04-24T08:26:19;13.40;99.90
7002;DHT22;3541;53.230;10.518;2023-04-24T08:28:45;13.40;99.90
7002;DHT22;3541;53.230;10.518;2023-04-24T08:31:13;13.50;99.90
7002;DHT22;3541;53.230;10.518;2023-04-24T08:33:40;13.40;99.90
7002;DHT22;3541;53.230;10.518;2023-04-24T08:36:07;13.40;99.90
7002;DHT22;3541;53.230;10.518;2023-04-24T08:38:34;13.50;99.90
7002;DHT22;3541;53.230;10.518;2023-04-24T08:41:01;13.50;99.90
7002;DHT22;3541;53.230;10.518;2023-04-24T08:43:28;13.60;99.90
7002;DHT22;3541;53.230;10.518;2023-04-24T08:45:56;13.90;99.90
7002;DHT22;3541;53.230;10.518;2023-04-24T08:48:24;14.00;99.90
7002;DHT22;3541;53.230;10.518;2023-04-24T08:50:51;13.80;99.90
7002;DHT22;3541;53.230;10.518;2023-04-24T08:53:18;13.80;99.90
7002;DHT22;3541;53.230;10.518;2023-04-24T08:55:47;13.90;99.90
7002;DHT22;3541;53.230;10.518;2023-04-24T08:58:15;13.80;99.90
7002;DHT22;3541;53.230;10.518;2023-04-24T09:00:42;13.90;99.90
7002;DHT22;3541;53.230;10.518;2023-04-24T09:03:13;13.80;99.90
7002;DHT22;3541;53.230;10.518;2023-04-24T09:05:41;13.80;99.90
7002;DHT22;3541;53.230;10.518;2023-04-24T09:08:11;13.80;99.90
7002;DHT22;3541;53.230;10.518;2023-04-24T09:10:39;13.80;99.90
7002;DHT22;3541;53.230;10.518;2023-04-24T09:13:06;13.70;99.90
7002;DHT22;3541;53.230;10.518;2023-04-24T09:15:34;13.80;99.90
7002;DHT22;3541;53.230;10.518;2023-04-24T09:18:01;13.90;99.90
7002;DHT22;3541;53.230;10.518;2023-04-24T09:20:28;14.00;99.90
7002;DHT22;3541;53.230;10.518;2023-04-24T09:22:56;14.00;99.90
7002;DHT22;3541;53.230;10.518;2023-04-24T09:25:30;13.90;99.90
7002;DHT22;3541;53.230;10.518;2023-04-24T09:28:00;13.90;99.90
7002;DHT22;3541;53.230;10.518;2023-04-24T09:30:27;13.90;99.90
7002;DHT22;3541;53.230;10.518;2023-04-24T09:33:12;13.90;99.90
7002;DHT22;3541;53.230;10.518;2023-04-24T09:35:41;13.80;99.90
7002;DHT22;3541;53.230;10.518;2023-04-24T09:38:09;13.80;99.90
7002;DHT22;3541;53.230;10.518;2023-04-24T09:40:36;13.60;99.90
7002;DHT22;3541;53.230;10.518;2023-04-24T09:43:02;13.50;99.90
7002;DHT22;3541;53.230;10.518;2023-04-24T09:45:35;13.40;99.90
7002;DHT22;3541;53.230;10.518;2023-04-24T09:48:02;13.40;99.90
7002;DHT22;3541;53.230;10.518;2023-04-24T09:50:30;13.40;99.90
7002;DHT22;3541;53.230;10.518;2023-04-24T09:52:59;13.40;99.90
7002;DHT22;3541;53.230;10.518;2023-04-24T09:55:28;13.40;99.90
7002;DHT22;3541;53.230;10.518;2023-04-24T09:57:56;13.40;99.90
7002;DHT22;3541;53.230;10.518;2023-04-24T10:00:24;13.40;99.90
7002;DHT22;3541;53.230;10.518;2023-04-24T10:02:58;13.60;99.90
7002;DHT22;3541;53.230;10.518;2023-04-24T10:05:29;13.60;99.90
7002;DHT22;3541;53.230;10.518;2023-04-24T10:07:57;13.60;99.90
7002;DHT22;3541;53.230;10.518;2023-04-24T10:10:24;13.70;99.90
7002;DHT22;3541;53.230;10.518;2023-04-24T10:12:52;13.90;99.90
7002;DHT22;3541;53.230;10.518;2023-04-24T10:15:20;13.90;99.90
7002;DHT22;3541;53.230;10.518;2023-04-24T10:17:48;13.70;99.90
7002;DHT22;3541;53.230;10.518;2023-04-24T10:20:18;13.60;99.90
7002;DHT22;3541;53.230;10.518;2023-04-24T10:22:47;13.50;99.90
7002;DHT22;3541;53.230;10.518;2023-04-24T10:25:16;13.70;99.90
7002;DHT22;3541;53.230;10.518;2023-04-24T10:27:43;14.00;99.90
7002;DHT22;3541;53.230;10.518;2023-04-24T10:30:12;14.20;99.90
7002;DHT22;3541;53.230;10.518;2023-04-24T10:32:39;14.10;99.90
7002;DHT22;3541;53.230;10.518;2023-04-24T10:35:07;14.00;99.90
7002;DHT22;3541;53.230;10.518;2023-04-24T10:37:36;14.10;99.90
7002;DHT22;3541;53.230;10.518;2023-04-24T10:40:04;14.10;99.90
7002;DHT22;3541;53.230;10.518;2023-04-24T10:42:32;14.10;99.90
7002;DHT22;3541;53.230;10.518;2023-04-24T10:44:58;14.00;99.90
7002;DHT22;3541;53.230;10.518;2023-04-24T10:47:28;13.90;99.90
7002;DHT22;3541;53.230;10.518;2023-04-24T10:49:59;13.70;99.90
7002;DHT22;3541;53.230;10.518;2023-04-24T10:52:43;13.80;99.90
7002;DHT22;3541;53.230;10.518;2023-04-24T10:55:12;14.00;99.90
7002;DHT22;3541;53.230;10.518;2023-04-24T10:57:39;14.20;99.90
7002;DHT22;3541;53.230;10.518;2023-04-24T11:00:20;14.50;99.90
7002;DHT22;3541;53.230;10.518;2023-04-24T11:02:48;14.60;99.90
7002;DHT22;3541;53.230;10.518;2023-04-24T11:05:18;14.70;99.90
7002;DHT22;3541;53.230;10.518;2023-04-24T11:08:09;14.90;99.90
7002;DHT22;3541;53.230;10.518;2023-04-24T11:10:38;14.90;99.90
7002;DHT22;3541;53.230;10.518;2023-04-24T11:13:05;14.70;99.90
7002;DHT22;3541;53.230;10.518;2023-04-24T11:15:31;14.60;99.90
7002;DHT22;3541;53.230;10.518;2023-04-24T11:17:59;14.50;99.90
7002;DHT22;3541;53.230;10.518;2023-04-24T11:20:26;14.20;99.90
7002;DHT22;3541;53.230;10.518;2023-04-24T11:22:53;14.10;99.90
7002;DHT22;3541;53.230;10.518;2023-04-24T11:25:23;14.40;99.90
7002;DHT22;3541;53.230;10.518;2023-04-24T11:27:50;14.70;99.90
7002;DHT22;3541;53.230;10.518;2023-04-24T11:30:29;14.70;99.90
7002;DHT22;3541;53.230;10.518;2023-04-24T11:33:03;14.90;99.90
7002;DHT22;3541;53.230;10.518;2023-04-24T11:35:35;15.00;99.90
7002;DHT22;3541;53.230;10.518;2023-04-24T11:38:06;14.90;99.90
7002;DHT22;3541;53.230;10.518;2023-04-24T11:40:32;14.80;99.90
7002;DHT22;3541;53.230;10.518;2023-04-24T11:43:00;14.80;99.90
7002;DHT22;3541;53.230;10.518;2023-04-24T11:45:28;14.70;99.90
7002;DHT22;3541;53.230;10.518;2023-04-24T11:47:55;14.60;99.90
7002;DHT22;3541;53.230;10.518;2023-04-24T11:50:25;14.50;99.90
7002;DHT22;3541;53.230;10.518;2023-04-24T11:52:53;14.40;99.90
7002;DHT22;3541;53.230;10.518;2023-04-24T11:55:28;14.20;99.90
7002;DHT22;3541;53.230;10.518;2023-04-24T11:57:56;14.20;99.90
7002;DHT22;3541;53.230;10.518;2023-04-24T12:00:25;14.10;99.90
7002;DHT22;3541;53.230;10.518;2023-04-24T12:03:03;14.10;99.90
7002;DHT22;3541;53.230;10.518;2023-04-24T12:05:32;14.10;99.90
7002;DHT22;3541;53.230;10.518;2023-04-24T12:07:59;14.10;99.90
7002;DHT22;3541;53.230;10.518;2023-04-24T12:10:28;14.10;99.90
7002;DHT22;3541;53.230;10.518;2023-04-24T12:12:56;13.90;99.90
7002;DHT22;3541;53.230;10.518;2023-04-24T12:15:23;13.70;99.90
7002;DHT22;3541;53.230;10.518;2023-04-24T12:17:51;13.60;99.90
7002;DHT22;3541;53.230;10.518;2023-04-24T12:20:23;13.70;99.90
7002;DHT22;3541;53.230;10.518;2023-04-24T12:22:53;13.70;99.90
7002;DHT22;3541;53.230;10.518;2023-04-24T12:25:21;13.60;99.90
7002;DHT22;3541;53.230;10.518;2023-04-24T12:27:52;13.70;99.90
7002;DHT22;3541;53.230;10.518;2023-04-24T12:30:20;13.80;99.90
7002;DHT22;3541;53.230;10.518;2023-04-24T12:32:47;13.80;99.90
7002;DHT22;3541;53.230;10.518;2023-04-24T12:35:19;13.80;99.90
7002;DHT22;3541;53.230;10.518;2023-04-24T12:37:46;13.90;99.90
7002;DHT22;3541;53.230;10.518;2023-04-24T12:40:14;14.10;99.90
7002;DHT22;3541;53.230;10.518;2023-04-24T12:42:43;14.10;99.90
7002;DHT22;3541;53.230;10.518;2023-04-24T12:45:10;14.00;99.90
7002;DHT22;3541;53.230;10.518;2023-04-24T12:47:38;14.00;99.90
7002;DHT22;3541;53.230;10.518;2023-04-24T12:50:06;13.90;99.90
7002;DHT22;3541;53.230;10.518;2023-04-24T12:52:33;14.00;99.90
7002;DHT22;3541;53.230;10.518;2023-04-24T12:55:00;13.90;99.90
7002;DHT22;3541;53.230;10.518;2023-04-24T12:57:29;13.90;99.90
7002;DHT22;3541;53.230;10.518;2023-04-24T12:59:57;13.90;99.90
7002;DHT22;3541;53.230;10.518;2023-04-24T13:02:25;13.90;99.90
7002;DHT22;3541;53.230;10.518;2023-04-24T13:04:53;13.70;99.90
7002;DHT22;3541;53.230;10.518;2023-04-24T13:07:20;13.60;99.90
7002;DHT22;3541;53.230;10.518;2023-04-24T13:09:48;13.60;99.90
7002;DHT22;3541;53.230;10.518;2023-04-24T13:12:15;13.50;99.90
7002;DHT22;3541;53.230;10.518;2023-04-24T13:14:44;13.40;99.90
7002;DHT22;3541;53.230;10.518;2023-04-24T13:17:10;13.50;99.90
7002;DHT22;3541;53.230;10.518;2023-04-24T13:19:39;13.40;99.90
7002;DHT22;3541;53.230;10.518;2023-04-24T13:22:08;13.30;99.90
7002;DHT22;3541;53.230;10.518;2023-04-24T13:24:35;13.30;99.90
7002;DHT22;3541;53.230;10.518;2023-04-24T13:27:01;13.10;99.90
7002;DHT22;3541;53.230;10.518;2023-04-24T13:29:28;13.20;99.90
7002;DHT22;3541;53.230;10.518;2023-04-24T13:31:56;13.10;99.90
7002;DHT22;3541;53.230;10.518;2023-04-24T13:34:23;13.10;99.90
7002;DHT22;3541;53.230;10.518;2023-04-24T13:36:50;13.00;99.90
7002;DHT22;3541;53.230;10.518;2023-04-24T13:39:17;13.00;99.90
7002;DHT22;3541;53.230;10.518;2023-04-24T13:41:43;12.90;99.90
7002;DHT22;3541;53.230;10.518;2023-04-24T13:44:10;13.00;99.90
7002;DHT22;3541;53.230;10.518;2023-04-24T13:46:37;13.10;99.90
7002;DHT22;3541;53.230;10.518;2023-04-24T13:49:05;13.20;99.90
7002;DHT22;3541;53.230;10.518;2023-04-24T13:51:32;13.40;99.90
7002;DHT22;3541;53.230;10.518;2023-04-24T13:53:58;13.40;99.90
7002;DHT22;3541;53.230;10.518;2023-04-24T13:56:26;13.40;99.90
7002;DHT22;3541;53.230;10.518;2023-04-24T13:58:52;13.50;99.90
7002;DHT22;3541;53.230;10.518;2023-04-24T14:01:20;13.50;99.90
7002;DHT22;3541;53.230;10.518;2023-04-24T14:03:49;13.50;99.90
7002;DHT22;3541;53.230;10.518;2023-04-24T14:06:17;13.50;99.90
7002;DHT22;3541;53.230;10.518;2023-04-24T14:08:43;13.50;99.90
7002;DHT22;3541;53.230;10.518;2023-04-24T14:11:10;13.50;99.90
7002;DHT22;3541;53.230;10.518;2023-04-24T14:13:37;13.40;99.90
7002;DHT22;3541;53.230;10.518;2023-04-24T14:16:04;13.20;99.90
7002;DHT22;3541;53.230;10.518;2023-04-24T14:18:31;13.30;99.90
7002;DHT22;3541;53.230;10.518;2023-04-24T14:20:58;13.20;99.90
7002;DHT22;3541;53.230;10.518;2023-04-24T14:23:27;13.20;99.90
7002;DHT22;3541;53.230;10.518;2023-04-24T14:25:54;13.30;99.90
7002;DHT22;3541;53.230;10.518;2023-04-24T14:28:21;13.20;99.90
7002;DHT22;3541;53.230;10.518;2023-04-24T14:30:48;13.20;99.90
7002;DHT22;3541;53.230;10.518;2023-04-24T14:33:15;13.20;99.90
7002;DHT22;3541;53.230;10.518;2023-04-24T14:35:41;13.10;99.90
7002;DHT22;3541;53.230;10.518;2023-04-24T14:38:08;12.90;99.90
7002;DHT22;3541;53.230;10.518;2023-04-24T14:40:37;12.80;99.90
7002;DHT22;3541;53.230;10.518;2023-04-24T14:43:04;12.80;99.90
7002;DHT22;3541;53.230;10.518;2023-04-24T14:45:30;12.80;99.90
7002;DHT22;3541;53.230;10.518;2023-04-24T14:47:57;12.90;99.90
7002;DHT22;3541;53.230;10.518;2023-04-24T14:50:24;12.80;99.90
7002;DHT22;3541;53.230;10.518;2023-04-24T14:52:53;12.70;99.90
7002;DHT22;3541;53.230;10.518;2023-04-24T14:55:19;12.60;99.90
7002;DHT22;3541;53.230;10.518;2023-04-24T14:57:48;12.60;99.90
7002;DHT22;3541;53.230;10.518;2023-04-24T15:00:15;12.50;99.90
7002;DHT22;3541;53.230;10.518;2023-04-24T15:02:42;12.30;99.90
7002;DHT22;3541;53.230;10.518;2023-04-24T15:05:10;12.40;99.90
7002;DHT22;3541;53.230;10.518;2023-04-24T15:07:37;12.30;99.90
7002;DHT22;3541;53.230;10.518;2023-04-24T15:10:04;12.20;99.90
7002;DHT22;3541;53.230;10.518;2023-04-24T15:12:31;12.20;99.90
7002;DHT22;3541;53.230;10.518;2023-04-24T15:14:59;12.10;99.90
7002;DHT22;3541;53.230;10.518;2023-04-24T15:17:26;11.90;99.90
7002;DHT22;3541;53.230;10.518;2023-04-24T15:19:52;11.70;99.90
7002;DHT22;3541;53.230;10.518;2023-04-24T15:22:19;11.60;99.90
7002;DHT22;3541;53.230;10.518;2023-04-24T15:24:46;11.60;99.90
7002;DHT22;3541;53.230;10.518;2023-04-24T15:27:12;11.60;99.90
7002;DHT22;3541;53.230;10.518;2023-04-24T15:29:39;11.50;99.90
7002;DHT22;3541;53.230;10.518;2023-04-24T15:32:07;11.60;99.90
7002;DHT22;3541;53.230;10.518;2023-04-24T15:34:33;11.60;99.90
7002;DHT22;3541;53.230;10.518;2023-04-24T15:37:00;11.50;99.90
7002;DHT22;3541;53.230;10.518;2023-04-24T15:39:27;11.40;99.90
7002;DHT22;3541;53.230;10.518;2023-04-24T15:41:53;11.30;99.90
7002;DHT22;3541;53.230;10.518;2023-04-24T15:44:21;11.40;99.90
7002;DHT22;3541;53.230;10.518;2023-04-24T15:46:47;11.30;99.90